sensor_id;sensor_type;location;lat;lon;timestamp;P1;durP1;ratioP1;P2;durP2;ratioP2
39256;SDS011;24958;48.066;11.038;2022-07-03T00:02:17;2.55;;;2.35;;
39256;SDS011;24958;48.066;11.038;2022-07-03T00:04:43;2.50;;;2.30;;
39256;SDS011;24958;48.066;11.038;2022-07-03T00:07:09;2.60;;;2.05;;
39256;SDS011;24958;48.066;11.038;2022-07-03T00:09:34;3.47;;;2.47;;
39256;SDS011;24958;48.066;11.038;2022-07-03T00:12:01;2.33;;;2.22;;
39256;SDS011;24958;48.066;11.038;2022-07-03T00:14:26;2.22;;;2.13;;
39256;SDS011;24958;48.066;11.038;2022-07-03T00:16:52;2.40;;;2.30;;
39256;SDS011;24958;48.066;11.038;2022-07-03T00:19:18;2.47;;;2.28;;
39256;SDS011;24958;48.066;11.038;2022-07-03T00:21:46;2.80;;;2.55;;
39256;SDS011;24958;48.066;11.038;2022-07-03T00:24:23;2.38;;;2.20;;
39256;SDS011;24958;48.066;11.038;2022-07-03T00:26:51;2.00;;;1.90;;
39256;SDS011;24958;48.066;11.038;2022-07-03T00:29:17;2.88;;;2.67;;
39256;SDS011;24958;48.066;11.038;2022-07-03T00:31:44;2.20;;;2.10;;
39256;SDS011;24958;48.066;11.038;2022-07-03T00:34:11;2.20;;;2.10;;
39256;SDS011;24958;48.066;11.038;2022-07-03T00:36:37;2.83;;;2.63;;
39256;SDS011;24958;48.066;11.038;2022-07-03T00:39:03;2.85;;;2.55;;
39256;SDS011;24958;48.066;11.038;2022-07-03T00:41:30;4.05;;;2.80;;
39256;SDS011;24958;48.066;11.038;2022-07-03T00:43:57;2.53;;;2.30;;
39256;SDS011;24958;48.066;11.038;2022-07-03T00:46:24;3.10;;;2.90;;
39256;SDS011;24958;48.066;11.038;2022-07-03T00:48:51;2.60;;;2.40;;
39256;SDS011;24958;48.066;11.038;2022-07-03T00:51:21;3.00;;;2.70;;
39256;SDS011;24958;48.066;11.038;2022-07-03T00:53:48;3.53;;;2.65;;
39256;SDS011;24958;48.066;11.038;2022-07-03T00:56:14;2.60;;;2.40;;
39256;SDS011;24958;48.066;11.038;2022-07-03T00:58:41;3.00;;;2.80;;
39256;SDS011;24958;48.066;11.038;2022-07-03T01:01:07;2.88;;;2.67;;
39256;SDS011;24958;48.066;11.038;2022-07-03T01:03:35;3.15;;;2.85;;
39256;SDS011;24958;48.066;11.038;2022-07-03T01:06:09;2.78;;;2.50;;
39256;SDS011;24958;48.066;11.038;2022-07-03T01:08:47;2.45;;;2.25;;
39256;SDS011;24958;48.066;11.038;2022-07-03T01:16:57;2.83;;;2.63;;
39256;SDS011;24958;48.066;11.038;2022-07-03T01:26:47;3.13;;;2.83;;
39256;SDS011;24958;48.066;11.038;2022-07-03T01:29:14;3.65;;;2.80;;
39256;SDS011;24958;48.066;11.038;2022-07-03T01:31:44;2.75;;;2.55;;
39256;SDS011;24958;48.066;11.038;2022-07-03T01:34:12;2.95;;;2.75;;
39256;SDS011;24958;48.066;11.038;2022-07-03T01:36:40;2.72;;;2.53;;
39256;SDS011;24958;48.066;11.038;2022-07-03T01:39:06;3.30;;;2.72;;
39256;SDS011;24958;48.066;11.038;2022-07-03T01:41:34;2.72;;;2.50;;
39256;SDS011;24958;48.066;11.038;2022-07-03T01:44:01;2.55;;;2.40;;
39256;SDS011;24958;48.066;11.038;2022-07-03T01:46:28;2.80;;;2.40;;
39256;SDS011;24958;48.066;11.038;2022-07-03T01:48:54;2.60;;;2.40;;
39256;SDS011;24958;48.066;11.038;2022-07-03T01:51:20;2.53;;;2.33;;
39256;SDS011;24958;48.066;11.038;2022-07-03T01:53:48;2.90;;;2.70;;
39256;SDS011;24958;48.066;11.038;2022-07-03T01:56:15;2.47;;;2.28;;
39256;SDS011;24958;48.066;11.038;2022-07-03T01:58:41;2.92;;;2.72;;
39256;SDS011;24958;48.066;11.038;2022-07-03T02:03:34;2.88;;;2.53;;
39256;SDS011;24958;48.066;11.038;2022-07-03T02:06:07;3.03;;;2.83;;
39256;SDS011;24958;48.066;11.038;2022-07-03T02:11:15;2.83;;;2.33;;
39256;SDS011;24958;48.066;11.038;2022-07-03T02:16:18;2.60;;;2.40;;
39256;SDS011;24958;48.066;11.038;2022-07-03T02:18:44;2.45;;;2.30;;
39256;SDS011;24958;48.066;11.038;2022-07-03T02:21:14;3.17;;;2.22;;
39256;SDS011;24958;48.066;11.038;2022-07-03T02:24:23;2.80;;;2.55;;
39256;SDS011;24958;48.066;11.038;2022-07-03T02:26:33;2.92;;;2.72;;
39256;SDS011;24958;48.066;11.038;2022-07-03T02:29:07;2.83;;;2.63;;
39256;SDS011;24958;48.066;11.038;2022-07-03T02:31:37;3.47;;;3.17;;
39256;SDS011;24958;48.066;11.038;2022-07-03T02:34:04;4.00;;;2.85;;
39256;SDS011;24958;48.066;11.038;2022-07-03T02:36:32;3.33;;;3.03;;
39256;SDS011;24958;48.066;11.038;2022-07-03T02:38:59;3.40;;;3.20;;
39256;SDS011;24958;48.066;11.038;2022-07-03T02:41:29;2.72;;;2.60;;
39256;SDS011;24958;48.066;11.038;2022-07-03T02:44:02;3.53;;;3.10;;
39256;SDS011;24958;48.066;11.038;2022-07-03T02:49:41;2.42;;;2.22;;
39256;SDS011;24958;48.066;11.038;2022-07-03T02:52:10;2.80;;;2.60;;
39256;SDS011;24958;48.066;11.038;2022-07-03T02:54:45;3.67;;;3.00;;
39256;SDS011;24958;48.066;11.038;2022-07-03T02:57:12;3.10;;;2.80;;
39256;SDS011;24958;48.066;11.038;2022-07-03T02:59:56;3.95;;;3.55;;
39256;SDS011;24958;48.066;11.038;2022-07-03T03:04:49;3.08;;;2.85;;
39256;SDS011;24958;48.066;11.038;2022-07-03T03:07:18;2.97;;;2.78;;
39256;SDS011;24958;48.066;11.038;2022-07-03T03:09:47;3.05;;;2.75;;
39256;SDS011;24958;48.066;11.038;2022-07-03T03:12:14;3.75;;;3.45;;
39256;SDS011;24958;48.066;11.038;2022-07-03T03:14:44;2.95;;;2.70;;
39256;SDS011;24958;48.066;11.038;2022-07-03T03:17:13;3.08;;;2.78;;
39256;SDS011;24958;48.066;11.038;2022-07-03T03:19:43;3.15;;;2.92;;
39256;SDS011;24958;48.066;11.038;2022-07-03T03:24:49;2.83;;;2.60;;
39256;SDS011;24958;48.066;11.038;2022-07-03T03:27:15;2.78;;;2.58;;
39256;SDS011;24958;48.066;11.038;2022-07-03T03:29:41;3.63;;;3.15;;
39256;SDS011;24958;48.066;11.038;2022-07-03T03:32:07;2.65;;;2.45;;
39256;SDS011;24958;48.066;11.038;2022-07-03T03:34:33;4.15;;;3.17;;
39256;SDS011;24958;48.066;11.038;2022-07-03T03:37:00;3.10;;;2.80;;
39256;SDS011;24958;48.066;11.038;2022-07-03T03:39:26;3.00;;;2.78;;
39256;SDS011;24958;48.066;11.038;2022-07-03T03:41:53;2.80;;;2.60;;
39256;SDS011;24958;48.066;11.038;2022-07-03T03:44:19;3.38;;;3.08;;
39256;SDS011;24958;48.066;11.038;2022-07-03T03:46:45;3.30;;;3.00;;
39256;SDS011;24958;48.066;11.038;2022-07-03T03:49:11;2.50;;;2.28;;
39256;SDS011;24958;48.066;11.038;2022-07-03T03:51:37;3.15;;;2.95;;
39256;SDS011;24958;48.066;11.038;2022-07-03T03:54:04;2.80;;;2.60;;
39256;SDS011;24958;48.066;11.038;2022-07-03T03:56:30;2.47;;;2.28;;
39256;SDS011;24958;48.066;11.038;2022-07-03T03:58:56;2.47;;;2.38;;
39256;SDS011;24958;48.066;11.038;2022-07-03T04:01:22;3.72;;;2.75;;
39256;SDS011;24958;48.066;11.038;2022-07-03T04:03:48;2.50;;;2.38;;
39256;SDS011;24958;48.066;11.038;2022-07-03T04:06:14;3.55;;;3.22;;
39256;SDS011;24958;48.066;11.038;2022-07-03T04:08:40;2.60;;;2.40;;
39256;SDS011;24958;48.066;11.038;2022-07-03T04:11:06;3.20;;;3.00;;
39256;SDS011;24958;48.066;11.038;2022-07-03T04:13:32;3.15;;;2.80;;
39256;SDS011;24958;48.066;11.038;2022-07-03T04:15:58;2.70;;;2.50;;
39256;SDS011;24958;48.066;11.038;2022-07-03T04:18:24;4.13;;;3.03;;
39256;SDS011;24958;48.066;11.038;2022-07-03T04:20:50;2.70;;;2.50;;
39256;SDS011;24958;48.066;11.038;2022-07-03T04:23:16;3.03;;;2.83;;
39256;SDS011;24958;48.066;11.038;2022-07-03T04:25:46;3.25;;;3.05;;
39256;SDS011;24958;48.066;11.038;2022-07-03T04:28:12;2.90;;;2.70;;
39256;SDS011;24958;48.066;11.038;2022-07-03T04:30:44;3.17;;;2.88;;
39256;SDS011;24958;48.066;11.038;2022-07-03T04:33:12;3.80;;;3.40;;
39256;SDS011;24958;48.066;11.038;2022-07-03T04:35:38;3.20;;;3.00;;
39256;SDS011;24958;48.066;11.038;2022-07-03T04:38:10;4.43;;;4.13;;
39256;SDS011;24958;48.066;11.038;2022-07-03T04:40:39;4.10;;;3.40;;
39256;SDS011;24958;48.066;11.038;2022-07-03T04:43:11;4.20;;;3.60;;
39256;SDS011;24958;48.066;11.038;2022-07-03T04:45:43;4.00;;;3.70;;
39256;SDS011;24958;48.066;11.038;2022-07-03T04:48:09;4.70;;;4.28;;
39256;SDS011;24958;48.066;11.038;2022-07-03T04:50:35;3.65;;;3.35;;
39256;SDS011;24958;48.066;11.038;2022-07-03T04:53:04;3.75;;;3.45;;
39256;SDS011;24958;48.066;11.038;2022-07-03T04:55:30;3.75;;;3.47;;
39256;SDS011;24958;48.066;11.038;2022-07-03T04:57:59;3.97;;;3.67;;
39256;SDS011;24958;48.066;11.038;2022-07-03T05:00:25;4.80;;;4.30;;
39256;SDS011;24958;48.066;11.038;2022-07-03T05:02:51;4.00;;;3.70;;
39256;SDS011;24958;48.066;11.038;2022-07-03T05:05:17;4.47;;;4.07;;
39256;SDS011;24958;48.066;11.038;2022-07-03T05:07:46;4.43;;;4.13;;
39256;SDS011;24958;48.066;11.038;2022-07-03T05:10:12;4.65;;;4.20;;
39256;SDS011;24958;48.066;11.038;2022-07-03T05:12:42;4.78;;;4.47;;
39256;SDS011;24958;48.066;11.038;2022-07-03T05:15:08;4.63;;;4.32;;
39256;SDS011;24958;48.066;11.038;2022-07-03T05:17:37;4.78;;;4.47;;
39256;SDS011;24958;48.066;11.038;2022-07-03T05:20:03;6.03;;;5.53;;
39256;SDS011;24958;48.066;11.038;2022-07-03T05:22:49;5.18;;;4.78;;
39256;SDS011;24958;48.066;11.038;2022-07-03T05:25:15;4.30;;;4.00;;
39256;SDS011;24958;48.066;11.038;2022-07-03T05:27:41;4.25;;;3.95;;
39256;SDS011;24958;48.066;11.038;2022-07-03T05:30:07;4.00;;;3.70;;
39256;SDS011;24958;48.066;11.038;2022-07-03T05:32:35;3.83;;;3.55;;
39256;SDS011;24958;48.066;11.038;2022-07-03T05:35:02;4.03;;;3.72;;
39256;SDS011;24958;48.066;11.038;2022-07-03T05:37:28;4.07;;;3.78;;
39256;SDS011;24958;48.066;11.038;2022-07-03T05:39:54;4.20;;;3.90;;
39256;SDS011;24958;48.066;11.038;2022-07-03T05:42:20;3.70;;;3.40;;
39256;SDS011;24958;48.066;11.038;2022-07-03T05:44:46;3.50;;;3.30;;
39256;SDS011;24958;48.066;11.038;2022-07-03T05:47:12;3.67;;;3.45;;
39256;SDS011;24958;48.066;11.038;2022-07-03T05:49:39;3.50;;;3.20;;
39256;SDS011;24958;48.066;11.038;2022-07-03T05:52:05;3.65;;;3.40;;
39256;SDS011;24958;48.066;11.038;2022-07-03T05:54:31;4.25;;;3.70;;
39256;SDS011;24958;48.066;11.038;2022-07-03T05:56:57;3.33;;;3.13;;
39256;SDS011;24958;48.066;11.038;2022-07-03T05:59:29;3.47;;;3.17;;
39256;SDS011;24958;48.066;11.038;2022-07-03T06:01:55;3.60;;;2.67;;
39256;SDS011;24958;48.066;11.038;2022-07-03T06:04:21;3.50;;;3.30;;
39256;SDS011;24958;48.066;11.038;2022-07-03T06:06:47;2.80;;;2.60;;
39256;SDS011;24958;48.066;11.038;2022-07-03T06:09:13;3.80;;;3.50;;
39256;SDS011;24958;48.066;11.038;2022-07-03T06:11:39;3.05;;;2.80;;
39256;SDS011;24958;48.066;11.038;2022-07-03T06:14:05;3.47;;;3.15;;
39256;SDS011;24958;48.066;11.038;2022-07-03T06:16:31;2.95;;;2.75;;
39256;SDS011;24958;48.066;11.038;2022-07-03T06:18:58;3.42;;;3.13;;
39256;SDS011;24958;48.066;11.038;2022-07-03T06:21:24;3.03;;;2.72;;
39256;SDS011;24958;48.066;11.038;2022-07-03T06:23:52;2.70;;;2.50;;
39256;SDS011;24958;48.066;11.038;2022-07-03T06:26:18;2.80;;;2.60;;
39256;SDS011;24958;48.066;11.038;2022-07-03T06:28:44;2.40;;;2.20;;
39256;SDS011;24958;48.066;11.038;2022-07-03T06:31:10;3.00;;;2.70;;
39256;SDS011;24958;48.066;11.038;2022-07-03T06:33:36;2.80;;;2.60;;
39256;SDS011;24958;48.066;11.038;2022-07-03T06:36:02;2.70;;;2.50;;
39256;SDS011;24958;48.066;11.038;2022-07-03T06:38:28;3.33;;;2.35;;
39256;SDS011;24958;48.066;11.038;2022-07-03T06:41:02;2.80;;;2.60;;
39256;SDS011;24958;48.066;11.038;2022-07-03T06:43:28;2.90;;;2.67;;
39256;SDS011;24958;48.066;11.038;2022-07-03T06:45:54;3.63;;;2.33;;
39256;SDS011;24958;48.066;11.038;2022-07-03T06:48:20;2.50;;;2.30;;
39256;SDS011;24958;48.066;11.038;2022-07-03T06:50:46;2.47;;;2.20;;
39256;SDS011;24958;48.066;11.038;2022-07-03T06:53:12;2.50;;;2.30;;
39256;SDS011;24958;48.066;11.038;2022-07-03T06:55:38;2.40;;;2.20;;
39256;SDS011;24958;48.066;11.038;2022-07-03T06:58:04;2.50;;;2.30;;
39256;SDS011;24958;48.066;11.038;2022-07-03T07:00:30;2.47;;;2.38;;
39256;SDS011;24958;48.066;11.038;2022-07-03T07:02:56;2.20;;;2.10;;
39256;SDS011;24958;48.066;11.038;2022-07-03T07:05:22;2.38;;;2.20;;
39256;SDS011;24958;48.066;11.038;2022-07-03T07:07:51;2.60;;;2.40;;
39256;SDS011;24958;48.066;11.038;2022-07-03T07:10:17;2.45;;;2.25;;
39256;SDS011;24958;48.066;11.038;2022-07-03T07:12:43;2.40;;;2.20;;
39256;SDS011;24958;48.066;11.038;2022-07-03T07:15:15;2.60;;;2.40;;
39256;SDS011;24958;48.066;11.038;2022-07-03T07:17:41;2.40;;;2.20;;
39256;SDS011;24958;48.066;11.038;2022-07-03T07:20:07;2.80;;;2.60;;
39256;SDS011;24958;48.066;11.038;2022-07-03T07:22:33;3.08;;;2.00;;
39256;SDS011;24958;48.066;11.038;2022-07-03T07:25:00;2.40;;;2.20;;
39256;SDS011;24958;48.066;11.038;2022-07-03T07:27:26;2.38;;;2.10;;
39256;SDS011;24958;48.066;11.038;2022-07-03T07:29:52;2.30;;;2.20;;
39256;SDS011;24958;48.066;11.038;2022-07-03T07:32:18;2.25;;;2.15;;
39256;SDS011;24958;48.066;11.038;2022-07-03T07:34:44;2.45;;;2.25;;
39256;SDS011;24958;48.066;11.038;2022-07-03T07:37:10;2.40;;;2.20;;
39256;SDS011;24958;48.066;11.038;2022-07-03T07:39:36;2.75;;;1.90;;
39256;SDS011;24958;48.066;11.038;2022-07-03T07:42:02;2.22;;;2.03;;
39256;SDS011;24958;48.066;11.038;2022-07-03T07:44:28;2.10;;;1.90;;
39256;SDS011;24958;48.066;11.038;2022-07-03T07:46:54;2.17;;;2.08;;
39256;SDS011;24958;48.066;11.038;2022-07-03T07:49:23;1.95;;;1.85;;
39256;SDS011;24958;48.066;11.038;2022-07-03T07:51:49;2.42;;;2.22;;
39256;SDS011;24958;48.066;11.038;2022-07-03T07:54:18;2.00;;;1.90;;
39256;SDS011;24958;48.066;11.038;2022-07-03T07:56:44;2.50;;;2.30;;
39256;SDS011;24958;48.066;11.038;2022-07-03T07:59:10;2.70;;;2.20;;
39256;SDS011;24958;48.066;11.038;2022-07-03T08:01:36;3.33;;;1.95;;
39256;SDS011;24958;48.066;11.038;2022-07-03T08:04:20;2.45;;;2.25;;
39256;SDS011;24958;48.066;11.038;2022-07-03T08:07:05;2.65;;;1.85;;
39256;SDS011;24958;48.066;11.038;2022-07-03T08:09:31;2.03;;;1.92;;
39256;SDS011;24958;48.066;11.038;2022-07-03T08:11:57;2.05;;;1.80;;
39256;SDS011;24958;48.066;11.038;2022-07-03T08:14:23;2.70;;;2.25;;
39256;SDS011;24958;48.066;11.038;2022-07-03T08:16:49;2.33;;;2.20;;
39256;SDS011;24958;48.066;11.038;2022-07-03T08:19:16;2.10;;;1.90;;
39256;SDS011;24958;48.066;11.038;2022-07-03T08:21:42;2.30;;;1.90;;
39256;SDS011;24958;48.066;11.038;2022-07-03T08:24:08;2.42;;;1.80;;
39256;SDS011;24958;48.066;11.038;2022-07-03T08:26:36;1.60;;;1.50;;
39256;SDS011;24958;48.066;11.038;2022-07-03T08:29:02;1.85;;;1.75;;
39256;SDS011;24958;48.066;11.038;2022-07-03T08:31:28;2.53;;;1.70;;
39256;SDS011;24958;48.066;11.038;2022-07-03T08:33:54;1.80;;;1.70;;
39256;SDS011;24958;48.066;11.038;2022-07-03T08:36:20;3.58;;;1.70;;
39256;SDS011;24958;48.066;11.038;2022-07-03T08:38:46;3.13;;;1.70;;
39256;SDS011;24958;48.066;11.038;2022-07-03T08:41:12;2.08;;;1.55;;
39256;SDS011;24958;48.066;11.038;2022-07-03T08:43:38;2.60;;;1.80;;
39256;SDS011;24958;48.066;11.038;2022-07-03T08:46:04;1.58;;;1.48;;
39256;SDS011;24958;48.066;11.038;2022-07-03T08:48:30;1.70;;;1.30;;
39256;SDS011;24958;48.066;11.038;2022-07-03T08:51:00;1.65;;;1.10;;
39256;SDS011;24958;48.066;11.038;2022-07-03T08:53:27;2.28;;;1.55;;
39256;SDS011;24958;48.066;11.038;2022-07-03T08:55:53;1.40;;;1.30;;
39256;SDS011;24958;48.066;11.038;2022-07-03T08:58:20;1.30;;;1.20;;
39256;SDS011;24958;48.066;11.038;2022-07-03T09:00:47;1.52;;;1.38;;
39256;SDS011;24958;48.066;11.038;2022-07-03T09:03:13;1.40;;;1.30;;
39256;SDS011;24958;48.066;11.038;2022-07-03T09:05:40;2.75;;;1.30;;
39256;SDS011;24958;48.066;11.038;2022-07-03T09:08:07;1.38;;;1.23;;
39256;SDS011;24958;48.066;11.038;2022-07-03T09:10:33;1.55;;;1.38;;
39256;SDS011;24958;48.066;11.038;2022-07-03T09:12:59;2.42;;;1.30;;
39256;SDS011;24958;48.066;11.038;2022-07-03T09:15:25;1.40;;;1.30;;
39256;SDS011;24958;48.066;11.038;2022-07-03T09:18:04;1.38;;;1.27;;
39256;SDS011;24958;48.066;11.038;2022-07-03T09:20:32;1.30;;;1.20;;
39256;SDS011;24958;48.066;11.038;2022-07-03T09:23:17;1.90;;;1.50;;
39256;SDS011;24958;48.066;11.038;2022-07-03T09:28:21;1.95;;;1.45;;
39256;SDS011;24958;48.066;11.038;2022-07-03T09:30:59;1.30;;;1.20;;
39256;SDS011;24958;48.066;11.038;2022-07-03T09:33:26;1.30;;;1.20;;
39256;SDS011;24958;48.066;11.038;2022-07-03T09:35:53;1.45;;;1.10;;
39256;SDS011;24958;48.066;11.038;2022-07-03T09:38:19;1.48;;;1.38;;
39256;SDS011;24958;48.066;11.038;2022-07-03T09:40:55;2.08;;;1.20;;
39256;SDS011;24958;48.066;11.038;2022-07-03T09:43:26;2.00;;;1.90;;
39256;SDS011;24958;48.066;11.038;2022-07-03T09:46:03;1.67;;;1.35;;
39256;SDS011;24958;48.066;11.038;2022-07-03T09:48:36;1.55;;;1.33;;
39256;SDS011;24958;48.066;11.038;2022-07-03T09:53:45;1.83;;;1.17;;
39256;SDS011;24958;48.066;11.038;2022-07-03T09:56:11;1.15;;;1.05;;
39256;SDS011;24958;48.066;11.038;2022-07-03T09:58:40;1.38;;;1.20;;
39256;SDS011;24958;48.066;11.038;2022-07-03T10:01:16;1.73;;;1.27;;
39256;SDS011;24958;48.066;11.038;2022-07-03T10:03:46;1.20;;;1.10;;
39256;SDS011;24958;48.066;11.038;2022-07-03T10:06:24;1.30;;;1.20;;
39256;SDS011;24958;48.066;11.038;2022-07-03T10:08:53;1.38;;;1.20;;
39256;SDS011;24958;48.066;11.038;2022-07-03T10:11:19;1.30;;;1.20;;
39256;SDS011;24958;48.066;11.038;2022-07-03T10:13:48;1.25;;;1.15;;
39256;SDS011;24958;48.066;11.038;2022-07-03T10:16:15;1.20;;;1.10;;
39256;SDS011;24958;48.066;11.038;2022-07-03T10:18:41;1.30;;;1.20;;
39256;SDS011;24958;48.066;11.038;2022-07-03T10:21:13;3.00;;;1.30;;
39256;SDS011;24958;48.066;11.038;2022-07-03T10:23:40;2.03;;;1.38;;
39256;SDS011;24958;48.066;11.038;2022-07-03T10:26:07;1.95;;;1.08;;
39256;SDS011;24958;48.066;11.038;2022-07-03T10:28:33;1.75;;;1.10;;
39256;SDS011;24958;48.066;11.038;2022-07-03T10:31:01;1.55;;;1.10;;
39256;SDS011;24958;48.066;11.038;2022-07-03T10:33:27;1.40;;;1.30;;
39256;SDS011;24958;48.066;11.038;2022-07-03T10:35:54;1.20;;;1.10;;
39256;SDS011;24958;48.066;11.038;2022-07-03T10:44:05;1.65;;;1.20;;
39256;SDS011;24958;48.066;11.038;2022-07-03T10:46:50;1.30;;;1.20;;
39256;SDS011;24958;48.066;11.038;2022-07-03T10:49:17;1.67;;;1.10;;
39256;SDS011;24958;48.066;11.038;2022-07-03T10:54:30;1.20;;;1.10;;
39256;SDS011;24958;48.066;11.038;2022-07-03T11:02:18;1.58;;;1.00;;
39256;SDS011;24958;48.066;11.038;2022-07-03T11:07:29;1.15;;;0.90;;
39256;SDS011;24958;48.066;11.038;2022-07-03T11:15:34;1.20;;;1.10;;
39256;SDS011;24958;48.066;11.038;2022-07-03T11:25:44;1.20;;;1.10;;
39256;SDS011;24958;48.066;11.038;2022-07-03T11:31:15;1.20;;;1.10;;
39256;SDS011;24958;48.066;11.038;2022-07-03T11:38:43;1.00;;;0.90;;
39256;SDS011;24958;48.066;11.038;2022-07-03T11:41:10;1.50;;;1.30;;
39256;SDS011;24958;48.066;11.038;2022-07-03T11:43:37;1.52;;;1.00;;
39256;SDS011;24958;48.066;11.038;2022-07-03T11:46:04;1.40;;;1.30;;
39256;SDS011;24958;48.066;11.038;2022-07-03T11:48:30;1.77;;;1.20;;
39256;SDS011;24958;48.066;11.038;2022-07-03T11:51:00;1.08;;;0.98;;
39256;SDS011;24958;48.066;11.038;2022-07-03T11:53:34;1.95;;;1.05;;
39256;SDS011;24958;48.066;11.038;2022-07-03T11:56:09;2.17;;;0.95;;
39256;SDS011;24958;48.066;11.038;2022-07-03T11:58:54;1.30;;;1.17;;
39256;SDS011;24958;48.066;11.038;2022-07-03T12:03:51;1.38;;;1.10;;
39256;SDS011;24958;48.066;11.038;2022-07-03T12:06:17;2.10;;;0.90;;
39256;SDS011;24958;48.066;11.038;2022-07-03T12:08:43;1.08;;;1.05;;
39256;SDS011;24958;48.066;11.038;2022-07-03T12:11:14;1.10;;;1.00;;
39256;SDS011;24958;48.066;11.038;2022-07-03T12:13:41;1.38;;;1.10;;
39256;SDS011;24958;48.066;11.038;2022-07-03T12:16:13;2.38;;;1.10;;
39256;SDS011;24958;48.066;11.038;2022-07-03T12:18:40;1.40;;;1.30;;
39256;SDS011;24958;48.066;11.038;2022-07-03T12:21:06;1.80;;;1.00;;
39256;SDS011;24958;48.066;11.038;2022-07-03T12:23:52;1.50;;;1.13;;
39256;SDS011;24958;48.066;11.038;2022-07-03T12:26:31;1.27;;;1.05;;
39256;SDS011;24958;48.066;11.038;2022-07-03T12:29:12;1.48;;;1.23;;
39256;SDS011;24958;48.066;11.038;2022-07-03T12:31:44;1.13;;;1.02;;
39256;SDS011;24958;48.066;11.038;2022-07-03T12:34:11;2.22;;;1.30;;
39256;SDS011;24958;48.066;11.038;2022-07-03T12:36:37;1.85;;;1.30;;
39256;SDS011;24958;48.066;11.038;2022-07-03T12:39:03;1.10;;;1.00;;
39256;SDS011;24958;48.066;11.038;2022-07-03T12:41:32;1.40;;;1.30;;
39256;SDS011;24958;48.066;11.038;2022-07-03T12:43:59;1.42;;;1.30;;
39256;SDS011;24958;48.066;11.038;2022-07-03T12:48:59;1.48;;;1.10;;
39256;SDS011;24958;48.066;11.038;2022-07-03T12:51:41;2.38;;;1.30;;
39256;SDS011;24958;48.066;11.038;2022-07-03T12:54:11;1.33;;;1.20;;
39256;SDS011;24958;48.066;11.038;2022-07-03T12:56:38;1.70;;;1.30;;
39256;SDS011;24958;48.066;11.038;2022-07-03T12:59:23;1.38;;;1.20;;
39256;SDS011;24958;48.066;11.038;2022-07-03T13:02:04;1.75;;;1.10;;
39256;SDS011;24958;48.066;11.038;2022-07-03T13:04:37;1.27;;;1.17;;
39256;SDS011;24958;48.066;11.038;2022-07-03T13:07:09;1.38;;;1.13;;
39256;SDS011;24958;48.066;11.038;2022-07-03T13:09:38;2.15;;;1.30;;
39256;SDS011;24958;48.066;11.038;2022-07-03T13:12:07;2.55;;;1.20;;
39256;SDS011;24958;48.066;11.038;2022-07-03T13:14:36;1.77;;;1.40;;
39256;SDS011;24958;48.066;11.038;2022-07-03T13:17:02;1.98;;;1.33;;
39256;SDS011;24958;48.066;11.038;2022-07-03T13:19:28;1.52;;;1.35;;
39256;SDS011;24958;48.066;11.038;2022-07-03T13:21:57;1.80;;;1.40;;
39256;SDS011;24958;48.066;11.038;2022-07-03T13:24:24;2.45;;;1.23;;
39256;SDS011;24958;48.066;11.038;2022-07-03T13:26:50;1.77;;;1.40;;
39256;SDS011;24958;48.066;11.038;2022-07-03T13:29:17;1.73;;;1.63;;
39256;SDS011;24958;48.066;11.038;2022-07-03T13:31:43;1.73;;;1.38;;
39256;SDS011;24958;48.066;11.038;2022-07-03T13:34:09;2.22;;;1.58;;
39256;SDS011;24958;48.066;11.038;2022-07-03T13:36:35;1.67;;;1.58;;
39256;SDS011;24958;48.066;11.038;2022-07-03T13:39:01;2.17;;;1.60;;
39256;SDS011;24958;48.066;11.038;2022-07-03T13:41:28;1.48;;;1.38;;
39256;SDS011;24958;48.066;11.038;2022-07-03T13:43:54;1.88;;;1.67;;
39256;SDS011;24958;48.066;11.038;2022-07-03T13:46:22;1.85;;;1.50;;
39256;SDS011;24958;48.066;11.038;2022-07-03T13:48:54;1.92;;;1.50;;
39256;SDS011;24958;48.066;11.038;2022-07-03T13:51:20;1.77;;;1.50;;
39256;SDS011;24958;48.066;11.038;2022-07-03T13:53:46;1.60;;;1.50;;
39256;SDS011;24958;48.066;11.038;2022-07-03T13:56:18;1.70;;;1.38;;
39256;SDS011;24958;48.066;11.038;2022-07-03T13:58:46;2.17;;;1.40;;
39256;SDS011;24958;48.066;11.038;2022-07-03T14:01:12;2.25;;;1.60;;
39256;SDS011;24958;48.066;11.038;2022-07-03T14:03:39;1.40;;;1.30;;
39256;SDS011;24958;48.066;11.038;2022-07-03T14:06:05;1.65;;;1.55;;
39256;SDS011;24958;48.066;11.038;2022-07-03T14:08:31;1.60;;;1.50;;
39256;SDS011;24958;48.066;11.038;2022-07-03T14:10:57;1.83;;;1.73;;
39256;SDS011;24958;48.066;11.038;2022-07-03T14:13:23;3.15;;;1.42;;
39256;SDS011;24958;48.066;11.038;2022-07-03T14:15:49;1.70;;;1.60;;
39256;SDS011;24958;48.066;11.038;2022-07-03T14:18:15;2.75;;;1.63;;
39256;SDS011;24958;48.066;11.038;2022-07-03T14:20:41;1.58;;;1.48;;
39256;SDS011;24958;48.066;11.038;2022-07-03T14:23:07;1.85;;;1.70;;
39256;SDS011;24958;48.066;11.038;2022-07-03T14:25:33;2.55;;;1.85;;
39256;SDS011;24958;48.066;11.038;2022-07-03T14:27:59;2.45;;;1.50;;
39256;SDS011;24958;48.066;11.038;2022-07-03T14:30:44;1.60;;;1.50;;
39256;SDS011;24958;48.066;11.038;2022-07-03T14:33:28;2.30;;;1.60;;
39256;SDS011;24958;48.066;11.038;2022-07-03T14:35:55;1.80;;;1.70;;
39256;SDS011;24958;48.066;11.038;2022-07-03T14:38:21;2.03;;;1.60;;
39256;SDS011;24958;48.066;11.038;2022-07-03T14:40:50;2.03;;;1.70;;
39256;SDS011;24958;48.066;11.038;2022-07-03T14:43:17;3.17;;;1.80;;
39256;SDS011;24958;48.066;11.038;2022-07-03T14:45:43;2.90;;;1.80;;
39256;SDS011;24958;48.066;11.038;2022-07-03T14:48:12;1.65;;;1.55;;
39256;SDS011;24958;48.066;11.038;2022-07-03T14:50:39;3.22;;;1.80;;
39256;SDS011;24958;48.066;11.038;2022-07-03T14:53:05;1.90;;;1.73;;
39256;SDS011;24958;48.066;11.038;2022-07-03T14:55:35;1.77;;;1.67;;
39256;SDS011;24958;48.066;11.038;2022-07-03T14:58:14;1.77;;;1.65;;
39256;SDS011;24958;48.066;11.038;2022-07-03T15:00:54;1.90;;;1.70;;
39256;SDS011;24958;48.066;11.038;2022-07-03T15:03:30;1.83;;;1.63;;
39256;SDS011;24958;48.066;11.038;2022-07-03T15:05:57;1.95;;;1.83;;
39256;SDS011;24958;48.066;11.038;2022-07-03T15:10:53;1.88;;;1.75;;
39256;SDS011;24958;48.066;11.038;2022-07-03T15:13:20;2.05;;;1.83;;
39256;SDS011;24958;48.066;11.038;2022-07-03T15:15:48;2.35;;;1.92;;
39256;SDS011;24958;48.066;11.038;2022-07-03T15:18:19;3.85;;;1.70;;
39256;SDS011;24958;48.066;11.038;2022-07-03T15:20:51;1.90;;;1.80;;
39256;SDS011;24958;48.066;11.038;2022-07-03T15:23:17;3.35;;;2.03;;
39256;SDS011;24958;48.066;11.038;2022-07-03T15:25:44;2.08;;;1.77;;
39256;SDS011;24958;48.066;11.038;2022-07-03T15:28:10;2.08;;;1.85;;
39256;SDS011;24958;48.066;11.038;2022-07-03T15:30:37;1.77;;;1.67;;
39256;SDS011;24958;48.066;11.038;2022-07-03T15:33:03;1.63;;;1.52;;
39256;SDS011;24958;48.066;11.038;2022-07-03T15:35:29;2.35;;;1.75;;
39256;SDS011;24958;48.066;11.038;2022-07-03T15:45:50;3.78;;;1.80;;
39256;SDS011;24958;48.066;11.038;2022-07-03T15:48:23;1.95;;;1.85;;
39256;SDS011;24958;48.066;11.038;2022-07-03T15:50:53;2.10;;;1.90;;
39256;SDS011;24958;48.066;11.038;2022-07-03T15:53:25;2.08;;;1.70;;
39256;SDS011;24958;48.066;11.038;2022-07-03T15:55:53;2.00;;;1.77;;
39256;SDS011;24958;48.066;11.038;2022-07-03T15:58:29;1.80;;;1.70;;
39256;SDS011;24958;48.066;11.038;2022-07-03T16:00:57;1.90;;;1.80;;
39256;SDS011;24958;48.066;11.038;2022-07-03T16:03:50;3.05;;;1.77;;
39256;SDS011;24958;48.066;11.038;2022-07-03T16:06:17;1.88;;;1.77;;
39256;SDS011;24958;48.066;11.038;2022-07-03T16:08:43;1.73;;;1.63;;